Time,TemperatureF,DewpointF,PressureIn,WindDirection,WindDirectionDegrees,WindSpeedMPH,WindSpeedGustMPH,Humidity,HourlyPrecipIn,Conditions,Clouds,dailyrainin,SoftwareType,DateUTC
2013-07-06 00:01:00,70.7,11.5,30.15,SE,135,0.0,0.0,1,0.00,,,0.00,WUHU216HW,2013-07-06 04:01:00,
2013-07-06 00:07:00,70.7,11.5,30.15,SE,135,0.0,0.0,1,0.00,,,0.00,WUHU216HW,2013-07-06 04:07:00,
2013-07-06 00:12:00,70.6,11.3,30.15,SE,135,0.0,0.0,1,0.00,,,0.00,WUHU216HW,2013-07-06 04:12:00,
2013-07-06 00:17:00,70.6,11.3,30.15,SE,135,0.0,0.0,1,0.00,,,0.00,WUHU216HW,2013-07-06 04:17:00,
2013-07-06 00:22:00,70.4,11.3,30.15,SE,135,0.0,0.0,1,0.00,,,0.00,WUHU216HW,2013-07-06 04:22:00,
2013-07-06 00:27:00,70.2,11.1,30.15,SE,135,0.0,0.0,1,0.00,,,0.00,WUHU216HW,2013-07-06 04:27:00,
2013-07-06 00:32:00,70.2,11.1,30.15,SE,135,0.0,0.0,1,0.00,,,0.00,WUHU216HW,2013-07-06 04:32:00,
2013-07-06 00:37:00,70.0,11.0,30.15,SE,135,0.0,0.0,1,0.00,,,0.00,WUHU216HW,2013-07-06 04:37:00,
2013-07-06 00:42:00,70.0,11.0,30.15,SE,135,0.0,0.0,1,0.00,,,0.00,WUHU216HW,2013-07-06 04:42:00,
2013-07-06 00:47:00,70.0,11.0,30.15,SE,135,0.0,0.0,1,0.00,,,0.00,WUHU216HW,2013-07-06 04:47:00,
2013-07-06 00:52:00,70.0,11.0,30.15,SE,135,0.0,0.0,1,0.00,,,0.00,WUHU216HW,2013-07-06 04:52:00,
2013-07-06 00:57:00,70.0,11.0,30.16,SE,135,0.0,0.0,1,0.00,,,0.00,WUHU216HW,2013-07-06 04:57:00,
2013-07-06 01:02:00,69.8,10.8,30.16,SE,135,0.0,0.0,1,0.00,,,0.00,WUHU216HW,2013-07-06 05:02:00,
2013-07-06 01:07:00,69.8,10.8,30.15,SE,135,0.0,0.0,1,0.00,,,0.00,WUHU216HW,2013-07-06 05:07:00,
2013-07-06 01:12:00,69.8,10.8,30.15,SE,135,0.0,0.0,1,0.00,,,0.00,WUHU216HW,2013-07-06 05:12:00,
2013-07-06 01:17:00,69.8,10.8,30.15,SE,135,0.0,0.0,1,0.00,,,0.00,WUHU216HW,2013-07-06 05:17:00,
2013-07-06 01:22:00,69.7,10.7,30.15,SE,135,0.0,0.0,1,0.00,,,0.00,WUHU216HW,2013-07-06 05:22:00,
2013-07-06 01:27:00,69.7,10.7,30.15,SE,135,0.0,0.0,1,0.00,,,0.00,WUHU216HW,2013-07-06 05:27:00,
2013-07-06 01:32:00,69.5,10.5,30.15,SE,135,0.0,0.0,1,0.00,,,0.00,WUHU216HW,2013-07-06 05:32:00,
2013-07-06 01:37:00,69.5,10.5,30.15,SE,135,0.0,0.0,1,0.00,,,0.00,WUHU216HW,2013-07-06 05:37:00,
2013-07-06 01:42:00,69.3,10.5,30.15,SE,135,0.0,0.0,1,0.00,,,0.00,WUHU216HW,2013-07-06 05:42:00,
2013-07-06 01:46:00,69.1,10.3,30.15,SE,135,0.0,0.0,1,0.00,,,0.00,WUHU216HW,2013-07-06 05:46:00,
2013-07-06 01:51:00,69.1,10.3,30.15,SE,135,0.0,0.0,1,0.00,,,0.00,WUHU216HW,2013-07-06 05:51:00,
2013-07-06 01:56:00,68.9,10.2,30.15,SE,135,0.0,0.0,1,0.00,,,0.00,WUHU216HW,2013-07-06 05:56:00,
2013-07-06 02:01:00,68.9,10.2,30.15,SE,135,0.0,0.0,1,0.00,,,0.00,WUHU216HW,2013-07-06 06:01:00,
2013-07-06 02:06:00,68.9,10.2,30.15,SE,135,0.0,0.0,1,0.00,,,0.00,WUHU216HW,2013-07-06 06:06:00,
2013-07-06 02:11:00,68.9,10.2,30.15,SE,135,0.0,0.0,1,0.00,,,0.00,WUHU216HW,2013-07-06 06:11:00,
2013-07-06 02:16:00,68.8,10.1,30.15,SE,135,0.0,0.0,1,0.00,,,0.00,WUHU216HW,2013-07-06 06:16:00,
2013-07-06 02:21:00,68.8,10.1,30.15,SE,135,0.0,0.0,1,0.00,,,0.00,WUHU216HW,2013-07-06 06:21:00,
2013-07-06 02:26:00,68.8,10.1,30.15,SE,135,0.0,0.0,1,0.00,,,0.00,WUHU216HW,2013-07-06 06:26:00,
2013-07-06 02:31:00,68.6,9.9,30.15,SE,135,0.0,0.0,1,0.00,,,0.00,WUHU216HW,2013-07-06 06:31:00,
2013-07-06 02:36:00,68.6,9.9,30.15,SE,135,0.0,0.0,1,0.00,,,0.00,WUHU216HW,2013-07-06 06:36:00,
2013-07-06 02:41:00,68.6,9.9,30.15,SE,135,0.0,0.0,1,0.00,,,0.00,WUHU216HW,2013-07-06 06:41:00,
2013-07-06 02:46:00,68.6,9.9,30.15,SE,135,0.0,0.0,1,0.00,,,0.00,WUHU216HW,2013-07-06 06:46:00,
2013-07-06 02:51:00,68.4,9.8,30.15,SE,135,0.0,0.0,1,0.00,,,0.00,WUHU216HW,2013-07-06 06:51:00,
2013-07-06 02:56:00,68.4,9.8,30.15,SE,135,0.0,0.0,1,0.00,,,0.00,WUHU216HW,2013-07-06 06:56:00,
2013-07-06 03:01:00,68.4,9.8,30.15,SE,135,0.0,0.0,1,0.00,,,0.00,WUHU216HW,2013-07-06 07:01:00,
2013-07-06 03:06:00,68.4,9.8,30.15,SE,135,0.0,0.0,1,0.00,,,0.00,WUHU216HW,2013-07-06 07:06:00,
2013-07-06 03:11:00,68.2,9.6,30.15,SE,135,0.0,0.0,1,0.00,,,0.00,WUHU216HW,2013-07-06 07:11:00,
2013-07-06 03:16:00,68.0,9.5,30.15,SE,135,0.0,0.0,1,0.00,,,0.00,WUHU216HW,2013-07-06 07:16:00,
2013-07-06 03:21:00,67.9,9.4,30.15,SE,135,0.0,0.0,1,0.00,,,0.00,WUHU216HW,2013-07-06 07:21:00,
2013-07-06 03:26:00,67.9,9.4,30.15,SE,135,0.0,0.0,1,0.00,,,0.00,WUHU216HW,2013-07-06 07:26:00,
2013-07-06 03:31:00,67.9,9.4,30.15,SE,135,0.0,0.0,1,0.00,,,0.00,WUHU216HW,2013-07-06 07:31:00,
2013-07-06 03:36:00,67.9,9.4,30.15,SE,135,0.0,0.0,1,0.00,,,0.00,WUHU216HW,2013-07-06 07:36:00,
2013-07-06 03:41:00,67.9,9.4,30.14,SE,135,0.0,0.0,1,0.00,,,0.00,WUHU216HW,2013-07-06 07:41:00,
2013-07-06 03:46:00,67.9,9.4,30.15,SE,135,0.0,0.0,1,0.00,,,0.00,WUHU216HW,2013-07-06 07:46:00,
2013-07-06 03:51:00,67.7,9.3,30.14,SE,135,0.0,0.0,1,0.00,,,0.00,WUHU216HW,2013-07-06 07:51:00,
2013-07-06 03:56:00,67.7,9.3,30.15,SE,135,0.0,0.0,1,0.00,,,0.00,WUHU216HW,2013-07-06 07:56:00,
2013-07-06 04:01:00,67.7,9.3,30.15,SE,135,0.0,0.0,1,0.00,,,0.00,WUHU216HW,2013-07-06 08:01:00,
2013-07-06 04:06:00,67.7,9.3,30.15,SE,135,0.0,0.0,1,0.00,,,0.00,WUHU216HW,2013-07-06 08:06:00,
2013-07-06 04:11:00,67.7,9.3,30.14,SE,135,0.0,0.0,1,0.00,,,0.00,WUHU216HW,2013-07-06 08:11:00,
2013-07-06 04:17:00,67.7,9.3,30.15,SE,135,0.0,0.0,1,0.00,,,0.00,WUHU216HW,2013-07-06 08:17:00,
2013-07-06 04:21:00,67.7,9.3,30.14,SE,135,0.0,0.0,1,0.00,,,0.00,WUHU216HW,2013-07-06 08:21:00,
2013-07-06 04:27:00,67.7,9.3,30.15,SE,135,0.0,0.0,1,0.00,,,0.00,WUHU216HW,2013-07-06 08:27:00,
2013-07-06 04:31:00,67.7,9.3,30.14,SE,135,0.0,0.0,1,0.00,,,0.00,WUHU216HW,2013-07-06 08:31:00,
2013-07-06 04:37:00,67.7,9.3,30.14,SE,135,0.0,0.0,1,0.00,,,0.00,WUHU216HW,2013-07-06 08:37:00,
2013-07-06 04:42:00,67.7,9.3,30.14,SE,135,0.0,0.0,1,0.00,,,0.00,WUHU216HW,2013-07-06 08:42:00,
2013-07-06 04:47:00,67.5,9.1,30.14,SE,135,0.0,0.0,1,0.00,,,0.00,WUHU216HW,2013-07-06 08:47:00,
2013-07-06 04:52:00,67.5,9.1,30.14,SE,135,0.0,0.0,1,0.00,,,0.00,WUHU216HW,2013-07-06 08:52:00,
2013-07-06 04:57:00,67.5,9.1,30.14,SE,135,0.0,0.0,1,0.00,,,0.00,WUHU216HW,2013-07-06 08:57:00,
2013-07-06 05:02:00,67.5,9.1,30.14,SE,135,0.0,0.0,1,0.00,,,0.00,WUHU216HW,2013-07-06 09:02:00,
2013-07-06 05:07:00,67.3,9.0,30.15,SE,135,0.0,0.0,1,0.00,,,0.00,WUHU216HW,2013-07-06 09:07:00,
2013-07-06 05:12:00,67.3,9.0,30.14,SE,135,0.0,0.0,1,0.00,,,0.00,WUHU216HW,2013-07-06 09:12:00,
2013-07-06 05:17:00,67.3,9.0,30.15,SE,135,0.0,0.0,1,0.00,,,0.00,WUHU216HW,2013-07-06 09:17:00,
2013-07-06 05:22:00,67.3,9.0,30.15,SE,135,0.0,0.0,1,0.00,,,0.00,WUHU216HW,2013-07-06 09:22:00,
2013-07-06 05:27:00,67.3,9.0,30.15,SE,135,0.0,0.0,1,0.00,,,0.00,WUHU216HW,2013-07-06 09:27:00,
2013-07-06 05:32:00,67.1,8.8,30.15,SE,135,0.0,0.0,1,0.00,,,0.00,WUHU216HW,2013-07-06 09:32:00,
2013-07-06 05:37:00,67.1,8.8,30.14,SE,135,0.0,0.0,1,0.00,,,0.00,WUHU216HW,2013-07-06 09:37:00,
2013-07-06 05:42:00,67.1,8.8,30.15,SE,135,0.0,0.0,1,0.00,,,0.00,WUHU216HW,2013-07-06 09:42:00,
2013-07-06 05:47:00,67.0,8.6,30.14,SE,135,0.0,0.0,1,0.00,,,0.00,WUHU216HW,2013-07-06 09:47:00,
2013-07-06 05:52:00,67.0,8.6,30.14,SE,135,0.0,0.0,1,0.00,,,0.00,WUHU216HW,2013-07-06 09:52:00,
2013-07-06 05:57:00,67.0,8.6,30.15,SE,135,0.0,0.0,1,0.00,,,0.00,WUHU216HW,2013-07-06 09:57:00,
2013-07-06 06:02:00,67.0,8.6,30.15,SE,135,0.0,0.0,1,0.00,,,0.00,WUHU216HW,2013-07-06 10:02:00,
2013-07-06 06:07:00,67.0,8.6,30.15,SE,135,0.0,0.0,1,0.00,,,0.00,WUHU216HW,2013-07-06 10:07:00,
2013-07-06 06:12:00,66.8,8.6,30.15,SE,135,0.0,0.0,1,0.00,,,0.00,WUHU216HW,2013-07-06 10:12:00,
2013-07-06 06:17:00,66.8,8.6,30.15,SE,135,0.0,0.0,1,0.00,,,0.00,WUHU216HW,2013-07-06 10:17:00,
2013-07-06 06:22:00,66.6,8.4,30.15,SE,135,0.0,0.0,1,0.00,,,0.00,WUHU216HW,2013-07-06 10:22:00,
2013-07-06 06:27:00,66.6,8.4,30.15,SE,135,0.0,0.0,1,0.00,,,0.00,WUHU216HW,2013-07-06 10:27:00,
2013-07-06 06:32:00,66.6,8.4,30.15,SE,135,0.0,0.0,1,0.00,,,0.00,WUHU216HW,2013-07-06 10:32:00,
2013-07-06 06:37:00,66.8,8.6,30.15,SE,135,0.0,0.0,1,0.00,,,0.00,WUHU216HW,2013-07-06 10:37:00,
2013-07-06 06:42:00,66.6,8.4,30.15,SE,135,0.0,0.0,1,0.00,,,0.00,WUHU216HW,2013-07-06 10:42:00,
2013-07-06 06:47:00,66.6,8.4,30.15,SE,135,0.0,0.0,1,0.00,,,0.00,WUHU216HW,2013-07-06 10:47:00,
2013-07-06 06:52:00,66.6,8.4,30.16,SE,135,0.0,0.0,1,0.00,,,0.00,WUHU216HW,2013-07-06 10:52:00,
2013-07-06 06:57:00,66.6,8.4,30.15,SE,135,0.0,0.0,1,0.00,,,0.00,WUHU216HW,2013-07-06 10:57:00,
2013-07-06 07:02:00,66.6,8.4,30.15,SE,135,0.0,0.0,1,0.00,,,0.00,WUHU216HW,2013-07-06 11:02:00,
2013-07-06 07:07:00,66.8,8.6,30.15,SE,135,0.0,0.0,1,0.00,,,0.00,WUHU216HW,2013-07-06 11:07:00,
2013-07-06 07:12:00,66.8,8.6,30.15,SE,135,0.0,0.0,1,0.00,,,0.00,WUHU216HW,2013-07-06 11:12:00,
2013-07-06 07:17:00,66.8,8.6,30.15,SE,135,0.0,0.0,1,0.00,,,0.00,WUHU216HW,2013-07-06 11:17:00,
2013-07-06 07:22:00,66.8,8.6,30.16,SE,135,0.0,0.0,1,0.00,,,0.00,WUHU216HW,2013-07-06 11:22:00,
2013-07-06 07:27:00,66.8,8.6,30.16,SE,135,0.0,0.0,1,0.00,,,0.00,WUHU216HW,2013-07-06 11:27:00,
2013-07-06 07:32:00,66.8,8.6,30.16,SE,135,0.0,0.0,1,0.00,,,0.00,WUHU216HW,2013-07-06 11:32:00,
2013-07-06 07:37:00,67.0,8.6,30.16,SE,135,0.0,0.0,1,0.00,,,0.00,WUHU216HW,2013-07-06 11:37:00,
2013-07-06 07:42:00,67.3,9.0,30.16,SE,135,0.0,0.0,1,0.00,,,0.00,WUHU216HW,2013-07-06 11:42:00,
2013-07-06 07:47:00,67.3,9.0,30.16,SE,135,0.0,0.0,1,0.00,,,0.00,WUHU216HW,2013-07-06 11:47:00,
2013-07-06 07:52:00,67.7,9.3,30.16,SE,135,0.0,0.2,1,0.00,,,0.00,WUHU216HW,2013-07-06 11:52:00,
2013-07-06 07:57:00,67.9,9.4,30.16,SE,135,0.0,0.2,1,0.00,,,0.00,WUHU216HW,2013-07-06 11:57:00,
2013-07-06 08:02:00,68.0,9.5,30.16,SE,135,0.0,0.2,1,0.00,,,0.00,WUHU216HW,2013-07-06 12:02:00,
2013-07-06 08:07:00,68.0,9.5,30.16,SE,135,0.0,0.2,1,0.00,,,0.00,WUHU216HW,2013-07-06 12:07:00,
2013-07-06 08:12:00,68.4,9.8,30.16,SE,135,0.0,0.0,1,0.00,,,0.00,WUHU216HW,2013-07-06 12:12:00,
2013-07-06 08:17:00,68.6,9.9,30.16,WNW,293,0.4,0.4,1,0.00,,,0.00,WUHU216HW,2013-07-06 12:17:00,
2013-07-06 08:22:00,68.6,9.9,30.16,West,270,0.0,0.4,1,0.00,,,0.00,WUHU216HW,2013-07-06 12:22:00,
2013-07-06 08:27:00,68.8,10.1,30.16,West,270,0.0,0.4,1,0.00,,,0.00,WUHU216HW,2013-07-06 12:27:00,
2013-07-06 08:32:00,69.1,10.3,30.16,SSE,158,0.0,0.9,1,0.00,,,0.00,WUHU216HW,2013-07-06 12:32:00,
2013-07-06 08:37:00,69.5,10.5,30.16,SSE,158,0.0,0.9,1,0.00,,,0.00,WUHU216HW,2013-07-06 12:37:00,
2013-07-06 08:42:00,69.8,10.8,30.16,SSE,158,0.0,0.0,1,0.00,,,0.00,WUHU216HW,2013-07-06 12:42:00,
2013-07-06 08:47:00,70.2,11.1,30.17,SE,135,1.1,1.1,1,0.00,,,0.00,WUHU216HW,2013-07-06 12:47:00,
2013-07-06 08:51:00,70.6,11.3,30.17,West,270,1.1,1.1,1,0.00,,,0.00,WUHU216HW,2013-07-06 12:51:00,
2013-07-06 08:56:00,70.9,11.7,30.17,NW,315,0.0,1.1,1,0.00,,,0.00,WUHU216HW,2013-07-06 12:56:00,
2013-07-06 09:01:00,71.1,11.8,30.17,East,90,0.0,0.9,1,0.00,,,0.00,WUHU216HW,2013-07-06 13:01:00,
2013-07-06 09:06:00,71.5,12.1,30.17,East,90,0.7,0.7,1,0.00,,,0.00,WUHU216HW,2013-07-06 13:06:00,
2013-07-06 09:11:00,71.6,12.2,30.17,NW,315,0.0,0.7,1,0.00,,,0.00,WUHU216HW,2013-07-06 13:11:00,
2013-07-06 09:16:00,71.8,12.4,30.17,NW,315,0.4,0.4,1,0.00,,,0.00,WUHU216HW,2013-07-06 13:16:00,
2013-07-06 09:21:00,72.0,12.5,30.17,West,270,0.0,0.4,1,0.00,,,0.00,WUHU216HW,2013-07-06 13:21:00,
2013-07-06 09:26:00,72.5,13.0,30.17,SE,135,1.3,1.3,1,0.00,,,0.00,WUHU216HW,2013-07-06 13:26:00,
2013-07-06 09:31:00,73.3,13.5,30.17,SE,135,0.2,1.3,1,0.00,,,0.00,WUHU216HW,2013-07-06 13:31:00,
2013-07-06 09:36:00,73.6,13.8,30.17,SE,135,0.0,0.9,1,0.00,,,0.00,WUHU216HW,2013-07-06 13:36:00,
2013-07-06 09:41:00,73.6,13.8,30.17,SE,135,0.4,0.7,1,0.00,,,0.00,WUHU216HW,2013-07-06 13:41:00,
2013-07-06 09:46:00,74.2,14.2,30.17,SSW,203,0.9,0.9,1,0.00,,,0.00,WUHU216HW,2013-07-06 13:46:00,
2013-07-06 09:51:00,74.5,14.4,30.16,WNW,293,0.0,0.9,1,0.00,,,0.00,WUHU216HW,2013-07-06 13:51:00,
2013-07-06 09:56:00,74.9,14.7,30.16,WSW,248,0.4,0.7,1,0.00,,,0.00,WUHU216HW,2013-07-06 13:56:00,
2013-07-06 10:01:00,75.2,14.9,30.16,South,180,0.2,0.4,1,0.00,,,0.00,WUHU216HW,2013-07-06 14:01:00,
2013-07-06 10:06:00,75.2,14.9,30.16,SSE,158,0.4,0.9,1,0.00,,,0.00,WUHU216HW,2013-07-06 14:06:00,
2013-07-06 10:11:00,75.4,15.1,30.16,SSE,158,0.0,1.1,1,0.00,,,0.00,WUHU216HW,2013-07-06 14:11:00,
2013-07-06 10:16:00,76.0,15.5,30.16,SW,225,0.4,1.3,1,0.00,,,0.00,WUHU216HW,2013-07-06 14:16:00,
2013-07-06 10:21:00,76.0,15.5,30.16,WSW,248,0.0,1.3,1,0.00,,,0.00,WUHU216HW,2013-07-06 14:21:00,
2013-07-06 10:26:00,76.7,16.1,30.16,SW,225,0.4,0.9,1,0.00,,,0.00,WUHU216HW,2013-07-06 14:26:00,
2013-07-06 10:32:00,76.9,16.2,30.16,West,270,0.7,1.1,1,0.00,,,0.00,WUHU216HW,2013-07-06 14:32:00,
2013-07-06 10:37:00,77.2,16.5,30.15,ENE,68,0.0,1.8,1,0.00,,,0.00,WUHU216HW,2013-07-06 14:37:00,
2013-07-06 10:42:00,77.8,16.9,30.15,SW,225,0.4,1.8,1,0.00,,,0.00,WUHU216HW,2013-07-06 14:42:00,
2013-07-06 10:47:00,78.1,17.1,30.15,WSW,248,0.7,1.1,1,0.00,,,0.00,WUHU216HW,2013-07-06 14:47:00,
2013-07-06 10:52:00,78.3,17.3,30.15,SW,225,0.9,1.1,1,0.00,,,0.00,WUHU216HW,2013-07-06 14:52:00,
2013-07-06 10:57:00,78.5,17.4,30.16,SSE,158,1.8,1.8,1,0.00,,,0.00,WUHU216HW,2013-07-06 14:57:00,
2013-07-06 11:02:00,78.7,17.6,30.15,SE,135,1.1,1.8,1,0.00,,,0.00,WUHU216HW,2013-07-06 15:02:00,
2013-07-06 11:07:00,78.8,17.6,30.15,SE,135,0.2,1.1,1,0.00,,,0.00,WUHU216HW,2013-07-06 15:07:00,
2013-07-06 11:12:00,78.7,17.6,30.16,West,270,0.7,1.1,1,0.00,,,0.00,WUHU216HW,2013-07-06 15:12:00,
2013-07-06 11:17:00,78.5,17.4,30.16,West,270,0.7,0.7,1,0.00,,,0.00,WUHU216HW,2013-07-06 15:17:00,
2013-07-06 11:22:00,78.3,17.3,30.16,SE,135,0.4,1.6,1,0.00,,,0.00,WUHU216HW,2013-07-06 15:22:00,
2013-07-06 11:27:00,78.8,17.6,30.16,ESE,113,1.3,1.6,1,0.00,,,0.00,WUHU216HW,2013-07-06 15:27:00,
2013-07-06 11:32:00,79.9,18.6,30.16,SE,135,0.7,1.8,1,0.00,,,0.00,WUHU216HW,2013-07-06 15:32:00,
2013-07-06 11:37:00,80.3,18.8,30.16,SE,135,0.4,1.8,1,0.00,,,0.00,WUHU216HW,2013-07-06 15:37:00,
2013-07-06 11:42:00,80.5,18.9,30.16,SE,135,0.9,1.8,1,0.00,,,0.00,WUHU216HW,2013-07-06 15:42:00,
2013-07-06 11:47:00,80.3,18.8,30.16,SSE,158,0.4,1.8,1,0.00,,,0.00,WUHU216HW,2013-07-06 15:47:00,
2013-07-06 11:52:00,80.1,18.6,30.16,ESE,113,0.7,1.6,1,0.00,,,0.00,WUHU216HW,2013-07-06 15:52:00,
2013-07-06 11:57:00,80.1,18.6,30.16,SW,225,0.4,1.1,1,0.00,,,0.00,WUHU216HW,2013-07-06 15:57:00,
2013-07-06 12:02:00,80.5,18.9,30.16,SE,135,0.9,1.6,1,0.00,,,0.00,WUHU216HW,2013-07-06 16:02:00,
2013-07-06 12:07:00,81.0,19.4,30.16,SE,135,0.9,1.8,1,0.00,,,0.00,WUHU216HW,2013-07-06 16:07:00,
2013-07-06 12:12:00,81.0,19.4,30.16,SE,135,1.1,1.8,1,0.00,,,0.00,WUHU216HW,2013-07-06 16:12:00,
2013-07-06 12:17:00,81.0,19.4,30.15,SE,135,0.4,1.8,1,0.00,,,0.00,WUHU216HW,2013-07-06 16:17:00,
2013-07-06 12:22:00,81.5,19.8,30.15,East,90,1.8,1.8,1,0.00,,,0.00,WUHU216HW,2013-07-06 16:22:00,
2013-07-06 12:27:00,81.7,20.0,30.15,WSW,248,1.1,1.8,1,0.00,,,0.00,WUHU216HW,2013-07-06 16:27:00,
2013-07-06 12:32:00,81.7,20.0,30.15,SSE,158,0.7,1.8,1,0.00,,,0.00,WUHU216HW,2013-07-06 16:32:00,
2013-07-06 12:38:00,81.4,19.6,30.15,SSE,158,0.4,1.8,1,0.00,,,0.00,WUHU216HW,2013-07-06 16:38:00,
2013-07-06 12:43:00,81.4,19.6,30.15,SW,225,1.1,1.8,1,0.00,,,0.00,WUHU216HW,2013-07-06 16:43:00,
2013-07-06 12:49:00,81.7,20.0,30.14,SSE,158,0.7,1.8,1,0.00,,,0.00,WUHU216HW,2013-07-06 16:49:00,
2013-07-06 12:54:00,81.9,20.1,30.14,WSW,248,1.8,1.8,1,0.00,,,0.00,WUHU216HW,2013-07-06 16:54:00,
2013-07-06 12:59:00,81.9,20.1,30.14,SE,135,0.4,1.8,1,0.00,,,0.00,WUHU216HW,2013-07-06 16:59:00,
2013-07-06 13:04:00,82.3,20.3,30.14,SE,135,0.9,1.1,1,0.00,,,0.00,WUHU216HW,2013-07-06 17:04:00,
2013-07-06 13:09:00,82.4,20.5,30.14,SE,135,1.3,1.6,1,0.00,,,0.00,WUHU216HW,2013-07-06 17:09:00,
2013-07-06 13:14:00,82.8,20.8,30.14,WSW,248,1.3,1.6,1,0.00,,,0.00,WUHU216HW,2013-07-06 17:14:00,
2013-07-06 13:20:00,82.8,20.8,30.14,ESE,113,1.8,1.8,1,0.00,,,0.00,WUHU216HW,2013-07-06 17:20:00,
2013-07-06 13:25:00,82.6,20.6,30.13,SE,135,1.1,1.8,1,0.00,,,0.00,WUHU216HW,2013-07-06 17:25:00,
2013-07-06 13:30:00,82.3,20.3,30.14,SE,135,1.1,1.6,1,0.00,,,0.00,WUHU216HW,2013-07-06 17:30:00,
2013-07-06 13:35:00,82.1,20.3,30.13,SE,135,1.8,2.5,1,0.00,,,0.00,WUHU216HW,2013-07-06 17:35:00,
2013-07-06 13:41:00,82.1,20.3,30.13,SE,135,0.4,2.5,1,0.00,,,0.00,WUHU216HW,2013-07-06 17:41:00,
2013-07-06 13:47:00,82.3,20.3,30.13,SE,135,1.8,2.5,1,0.00,,,0.00,WUHU216HW,2013-07-06 17:47:00,
2013-07-06 13:53:00,81.9,20.1,30.13,SE,135,1.3,1.8,1,0.00,,,0.00,WUHU216HW,2013-07-06 17:53:00,
2013-07-06 13:58:00,81.7,20.0,30.13,SE,135,0.2,1.8,1,0.00,,,0.00,WUHU216HW,2013-07-06 17:58:00,
2013-07-06 14:04:00,81.5,19.8,30.13,ESE,113,1.3,1.3,1,0.00,,,0.00,WUHU216HW,2013-07-06 18:04:00,
2013-07-06 14:09:00,81.4,19.6,30.13,South,180,1.3,1.3,1,0.00,,,0.00,WUHU216HW,2013-07-06 18:09:00,
2013-07-06 14:14:00,81.4,19.6,30.12,SE,135,0.4,1.8,1,0.00,,,0.00,WUHU216HW,2013-07-06 18:14:00,
2013-07-06 14:20:00,81.4,19.6,30.12,SE,135,0.7,1.8,1,0.00,,,0.00,WUHU216HW,2013-07-06 18:20:00,
2013-07-06 14:25:00,81.7,20.0,30.12,ESE,113,1.6,1.6,1,0.00,,,0.00,WUHU216HW,2013-07-06 18:25:00,
2013-07-06 14:31:00,82.4,20.5,30.11,SE,135,1.1,1.6,1,0.00,,,0.00,WUHU216HW,2013-07-06 18:31:00,
2013-07-06 14:36:00,82.4,20.5,30.11,SSE,158,1.3,2.2,1,0.00,,,0.00,WUHU216HW,2013-07-06 18:36:00,
2013-07-06 14:41:00,82.6,20.6,30.11,SSW,203,0.9,2.0,1,0.00,,,0.00,WUHU216HW,2013-07-06 18:41:00,
2013-07-06 14:46:00,82.6,20.6,30.11,SSE,158,0.0,2.0,1,0.00,,,0.00,WUHU216HW,2013-07-06 18:46:00,
2013-07-06 14:51:00,82.6,20.6,30.11,WSW,248,1.1,1.8,1,0.00,,,0.00,WUHU216HW,2013-07-06 18:51:00,
2013-07-06 14:56:00,82.6,20.6,30.11,South,180,0.4,1.3,1,0.00,,,0.00,WUHU216HW,2013-07-06 18:56:00,
2013-07-06 15:02:00,82.6,20.6,30.10,SE,135,0.9,1.3,1,0.00,,,0.00,WUHU216HW,2013-07-06 19:02:00,
2013-07-06 15:07:00,82.1,20.3,30.10,SE,135,1.1,1.6,1,0.00,,,0.00,WUHU216HW,2013-07-06 19:07:00,
2013-07-06 15:12:00,82.1,20.3,30.10,SE,135,0.9,1.6,1,0.00,,,0.00,WUHU216HW,2013-07-06 19:12:00,
2013-07-06 15:17:00,82.3,20.3,30.10,SE,135,0.0,1.1,1,0.00,,,0.00,WUHU216HW,2013-07-06 19:17:00,
2013-07-06 15:22:00,82.3,20.3,30.10,SSE,158,0.4,1.3,1,0.00,,,0.00,WUHU216HW,2013-07-06 19:22:00,
2013-07-06 15:27:00,82.3,20.3,30.10,SE,135,0.4,1.6,1,0.00,,,0.00,WUHU216HW,2013-07-06 19:27:00,
2013-07-06 15:33:00,82.3,20.3,30.10,SSE,158,0.4,1.6,1,0.00,,,0.00,WUHU216HW,2013-07-06 19:33:00,
2013-07-06 15:38:00,82.1,20.3,30.09,SE,135,0.4,1.1,1,0.00,,,0.00,WUHU216HW,2013-07-06 19:38:00,
2013-07-06 15:43:00,81.9,20.1,30.09,SE,135,0.7,1.1,1,0.00,,,0.00,WUHU216HW,2013-07-06 19:43:00,
2013-07-06 15:49:00,82.1,20.3,30.09,ESE,113,1.8,1.8,1,0.00,,,0.00,WUHU216HW,2013-07-06 19:49:00,
2013-07-06 15:54:00,81.9,20.1,30.09,SE,135,1.1,1.8,1,0.00,,,0.00,WUHU216HW,2013-07-06 19:54:00,
2013-07-06 15:59:00,81.7,20.0,30.10,SE,135,0.4,1.6,1,0.00,,,0.00,WUHU216HW,2013-07-06 19:59:00,
2013-07-06 16:04:00,81.7,20.0,30.10,SE,135,0.9,1.8,1,0.00,,,0.00,WUHU216HW,2013-07-06 20:04:00,
2013-07-06 16:09:00,81.5,19.8,30.09,SE,135,0.2,1.8,1,0.00,,,0.00,WUHU216HW,2013-07-06 20:09:00,
2013-07-06 16:14:00,81.5,19.8,30.09,ESE,113,0.9,1.1,1,0.00,,,0.00,WUHU216HW,2013-07-06 20:14:00,
2013-07-06 16:19:00,81.4,19.6,30.09,ESE,113,0.9,1.1,1,0.00,,,0.00,WUHU216HW,2013-07-06 20:19:00,
2013-07-06 16:24:00,81.2,19.5,30.09,SE,135,0.4,1.1,1,0.00,,,0.00,WUHU216HW,2013-07-06 20:24:00,
2013-07-06 16:29:00,81.4,19.6,30.09,SE,135,0.2,1.1,1,0.00,,,0.00,WUHU216HW,2013-07-06 20:29:00,
2013-07-06 16:34:00,81.2,19.5,30.09,SE,135,0.0,0.7,1,0.00,,,0.00,WUHU216HW,2013-07-06 20:34:00,
2013-07-06 16:41:00,80.8,19.3,30.09,SSE,158,1.1,2.5,1,0.00,,,0.00,WUHU216HW,2013-07-06 20:41:00,
2013-07-06 16:46:00,79.2,17.9,30.09,SE,135,1.3,2.5,1,0.00,,,0.00,WUHU216HW,2013-07-06 20:46:00,
2013-07-06 16:51:00,77.0,16.4,30.09,SE,135,1.8,2.2,1,0.06,,,0.06,WUHU216HW,2013-07-06 20:51:00,
2013-07-06 16:57:00,75.6,15.2,30.10,SE,135,0.0,2.2,1,0.09,,,0.08,WUHU216HW,2013-07-06 20:57:00,
2013-07-06 17:02:00,75.2,14.9,30.10,SSW,203,0.0,0.4,1,0.14,,,0.13,WUHU216HW,2013-07-06 21:02:00,
2013-07-06 17:08:00,75.2,14.9,30.10,SSW,203,0.0,0.4,1,0.15,,,0.15,WUHU216HW,2013-07-06 21:08:00,
2013-07-06 17:13:00,75.2,14.9,30.10,SSW,203,0.0,0.0,1,0.15,,,0.15,WUHU216HW,2013-07-06 21:13:00,
2013-07-06 17:18:00,75.1,14.9,30.10,SSW,203,0.0,0.0,1,0.16,,,0.17,WUHU216HW,2013-07-06 21:18:00,
2013-07-06 17:23:00,75.1,14.9,30.10,SSW,203,0.0,0.0,1,0.17,,,0.18,WUHU216HW,2013-07-06 21:23:00,
2013-07-06 17:29:00,74.9,14.7,30.09,West,270,0.0,0.0,1,0.17,,,0.18,WUHU216HW,2013-07-06 21:29:00,
2013-07-06 17:34:00,74.9,14.7,30.09,West,270,0.0,0.0,1,0.17,,,0.18,WUHU216HW,2013-07-06 21:34:00,
2013-07-06 17:39:00,74.5,14.4,30.09,West,270,0.0,0.0,1,0.18,,,0.19,WUHU216HW,2013-07-06 21:39:00,
2013-07-06 17:45:00,74.5,14.4,30.08,West,270,0.0,0.0,1,0.13,,,0.19,WUHU216HW,2013-07-06 21:45:00,
2013-07-06 17:50:00,74.5,14.4,30.09,West,270,0.0,0.0,1,0.11,,,0.19,WUHU216HW,2013-07-06 21:50:00,
2013-07-06 17:56:00,74.5,14.4,30.08,West,270,0.0,0.0,1,0.09,,,0.19,WUHU216HW,2013-07-06 21:56:00,
2013-07-06 18:01:00,74.5,14.4,30.08,West,270,0.0,0.0,1,0.04,,,0.19,WUHU216HW,2013-07-06 22:01:00,
2013-07-06 18:06:00,74.5,14.4,30.08,West,270,0.0,0.0,1,0.03,,,0.19,WUHU216HW,2013-07-06 22:06:00,
2013-07-06 18:11:00,74.3,14.3,30.08,West,270,0.0,0.0,1,0.03,,,0.19,WUHU216HW,2013-07-06 22:11:00,
2013-07-06 18:17:00,74.3,14.3,30.08,West,270,0.0,0.0,1,0.02,,,0.19,WUHU216HW,2013-07-06 22:17:00,
2013-07-06 18:22:00,74.3,14.3,30.08,West,270,0.0,0.0,1,0.01,,,0.19,WUHU216HW,2013-07-06 22:22:00,
2013-07-06 18:27:00,74.3,14.3,30.08,West,270,0.0,0.0,1,0.01,,,0.19,WUHU216HW,2013-07-06 22:27:00,
2013-07-06 18:33:00,74.2,14.2,30.08,West,270,0.0,0.0,1,0.00,,,0.19,WUHU216HW,2013-07-06 22:33:00,
2013-07-06 18:38:00,74.2,14.2,30.08,West,270,0.0,0.0,1,0.00,,,0.19,WUHU216HW,2013-07-06 22:38:00,
2013-07-06 18:43:00,74.2,14.2,30.07,South,180,0.0,0.4,1,0.00,,,0.19,WUHU216HW,2013-07-06 22:43:00,
2013-07-06 18:48:00,74.0,14.0,30.07,SSE,158,0.0,0.4,1,0.00,,,0.19,WUHU216HW,2013-07-06 22:48:00,
2013-07-06 18:54:00,73.8,14.0,30.07,SSE,158,0.0,0.4,1,0.00,,,0.19,WUHU216HW,2013-07-06 22:54:00,
2013-07-06 18:59:00,73.6,13.8,30.07,SSE,158,0.2,0.9,1,0.00,,,0.19,WUHU216HW,2013-07-06 22:59:00,
2013-07-06 19:04:00,73.4,13.7,30.07,ESE,113,0.2,0.9,1,0.00,,,0.19,WUHU216HW,2013-07-06 23:04:00,
2013-07-06 19:09:00,73.3,13.5,30.06,ESE,113,0.4,1.3,1,0.00,,,0.19,WUHU216HW,2013-07-06 23:09:00,
2013-07-06 19:15:00,73.3,13.5,30.06,SE,135,0.0,1.3,1,0.00,,,0.19,WUHU216HW,2013-07-06 23:15:00,
2013-07-06 19:20:00,73.1,13.4,30.06,East,90,0.0,1.6,1,0.00,,,0.19,WUHU216HW,2013-07-06 23:20:00,
2013-07-06 19:25:00,73.1,13.4,30.06,ENE,68,0.4,1.6,1,0.00,,,0.19,WUHU216HW,2013-07-06 23:25:00,
2013-07-06 19:30:00,73.1,13.4,30.06,ENE,68,0.4,1.6,1,0.00,,,0.19,WUHU216HW,2013-07-06 23:30:00,
2013-07-06 19:36:00,73.1,13.4,30.06,East,90,0.0,0.4,1,0.00,,,0.19,WUHU216HW,2013-07-06 23:36:00,
2013-07-06 19:41:00,73.1,13.4,30.06,ESE,113,0.9,0.9,1,0.00,,,0.19,WUHU216HW,2013-07-06 23:41:00,
2013-07-06 19:46:00,72.9,13.2,30.06,ESE,113,0.2,0.9,1,0.00,,,0.19,WUHU216HW,2013-07-06 23:46:00,
2013-07-06 19:51:00,72.9,13.2,30.06,ENE,68,0.9,1.1,1,0.00,,,0.19,WUHU216HW,2013-07-06 23:51:00,
2013-07-06 19:56:00,72.7,13.2,30.05,East,90,1.8,2.9,1,0.00,,,0.19,WUHU216HW,2013-07-06 23:56:00,
2013-07-06 20:01:00,72.7,13.2,30.05,East,90,0.0,2.9,1,0.00,,,0.19,WUHU216HW,2013-07-07 00:01:00,
2013-07-06 20:06:00,72.7,13.2,30.05,NE,45,0.4,1.3,1,0.00,,,0.19,WUHU216HW,2013-07-07 00:06:00,
2013-07-06 20:11:00,72.7,13.2,30.06,NE,45,0.0,1.3,1,0.00,,,0.19,WUHU216HW,2013-07-07 00:11:00,
2013-07-06 20:17:00,72.7,13.2,30.05,NE,45,0.0,0.2,1,0.00,,,0.19,WUHU216HW,2013-07-07 00:17:00,
2013-07-06 20:22:00,72.7,13.2,30.06,NE,45,0.2,0.2,1,0.00,,,0.19,WUHU216HW,2013-07-07 00:22:00,
2013-07-06 20:27:00,72.5,13.0,30.06,NE,45,0.0,0.2,1,0.00,,,0.19,WUHU216HW,2013-07-07 00:27:00,
2013-07-06 20:33:00,72.5,13.0,30.06,ENE,68,0.0,0.0,1,0.00,,,0.19,WUHU216HW,2013-07-07 00:33:00,
2013-07-06 20:38:00,72.4,12.8,30.06,ENE,68,0.0,0.0,1,0.00,,,0.19,WUHU216HW,2013-07-07 00:38:00,
2013-07-06 20:43:00,72.2,12.7,30.07,ENE,68,0.0,0.2,1,0.00,,,0.19,WUHU216HW,2013-07-07 00:43:00,
2013-07-06 20:49:00,72.0,12.5,30.07,ENE,68,0.0,0.0,1,0.00,,,0.19,WUHU216HW,2013-07-07 00:49:00,
2013-07-06 20:55:00,72.0,12.5,30.07,ENE,68,0.0,0.0,1,0.00,,,0.19,WUHU216HW,2013-07-07 00:55:00,
2013-07-06 21:01:00,71.8,12.4,30.07,ENE,68,0.0,0.0,1,0.00,,,0.19,WUHU216HW,2013-07-07 01:01:00,
2013-07-06 21:06:00,71.8,12.4,30.07,ENE,68,0.0,0.0,1,0.00,,,0.19,WUHU216HW,2013-07-07 01:06:00,
2013-07-06 21:12:00,71.8,12.4,30.07,ENE,68,0.0,0.0,1,0.00,,,0.19,WUHU216HW,2013-07-07 01:12:00,
2013-07-06 21:18:00,71.8,12.4,30.07,ENE,68,0.0,0.0,1,0.00,,,0.19,WUHU216HW,2013-07-07 01:18:00,
2013-07-06 21:23:00,71.6,12.2,30.06,ENE,68,0.9,0.9,1,0.00,,,0.19,WUHU216HW,2013-07-07 01:23:00,
2013-07-06 21:28:00,71.6,12.2,30.06,ENE,68,0.0,0.9,1,0.01,,,0.20,WUHU216HW,2013-07-07 01:28:00,
2013-07-06 21:34:00,71.6,12.2,30.06,ENE,68,0.0,0.0,1,0.01,,,0.20,WUHU216HW,2013-07-07 01:34:00,
2013-07-06 21:39:00,71.6,12.2,30.06,ENE,68,0.0,0.0,1,0.01,,,0.20,WUHU216HW,2013-07-07 01:39:00,
2013-07-06 21:44:00,71.6,12.2,30.06,ENE,68,0.0,0.0,1,0.01,,,0.20,WUHU216HW,2013-07-07 01:44:00,
2013-07-06 21:49:00,71.5,12.1,30.07,ENE,68,0.0,0.0,1,0.01,,,0.20,WUHU216HW,2013-07-07 01:49:00,
2013-07-06 21:55:00,71.3,12.0,30.07,ENE,68,0.0,0.0,1,0.01,,,0.20,WUHU216HW,2013-07-07 01:55:00,
2013-07-06 22:00:00,71.3,12.0,30.07,ENE,68,0.0,0.0,1,0.01,,,0.20,WUHU216HW,2013-07-07 02:00:00,
2013-07-06 22:05:00,71.1,11.8,30.06,ENE,68,0.0,0.0,1,0.01,,,0.20,WUHU216HW,2013-07-07 02:05:00,
2013-07-06 22:11:00,71.1,11.8,30.06,East,90,0.4,0.4,1,0.01,,,0.20,WUHU216HW,2013-07-07 02:11:00,
2013-07-06 22:16:00,71.1,11.8,30.06,East,90,0.2,0.7,1,0.01,,,0.20,WUHU216HW,2013-07-07 02:16:00,
2013-07-06 22:22:00,71.1,11.8,30.06,East,90,0.0,0.2,1,0.01,,,0.20,WUHU216HW,2013-07-07 02:22:00,
2013-07-06 22:27:00,71.1,11.8,30.07,SSE,158,0.0,0.0,1,0.00,,,0.20,WUHU216HW,2013-07-07 02:27:00,
2013-07-06 22:32:00,71.1,11.8,30.07,SSE,158,0.0,0.0,1,0.00,,,0.20,WUHU216HW,2013-07-07 02:32:00,
2013-07-06 22:38:00,70.9,11.7,30.08,SSE,158,0.0,0.0,1,0.00,,,0.20,WUHU216HW,2013-07-07 02:38:00,
2013-07-06 22:43:00,70.9,11.7,30.09,South,180,0.2,0.4,1,0.00,,,0.20,WUHU216HW,2013-07-07 02:43:00,
2013-07-06 22:49:00,70.9,11.7,30.08,South,180,0.0,0.4,1,0.00,,,0.20,WUHU216HW,2013-07-07 02:49:00,
2013-07-06 22:54:00,70.9,11.7,30.08,South,180,0.0,0.2,1,0.00,,,0.20,WUHU216HW,2013-07-07 02:54:00,
2013-07-06 22:59:00,70.9,11.7,30.08,South,180,0.0,0.2,1,0.00,,,0.20,WUHU216HW,2013-07-07 02:59:00,
2013-07-06 23:05:00,70.9,11.7,30.08,South,180,0.0,0.0,1,0.00,,,0.20,WUHU216HW,2013-07-07 03:05:00,
2013-07-06 23:10:00,70.9,11.7,30.07,South,180,0.0,0.0,1,0.00,,,0.20,WUHU216HW,2013-07-07 03:10:00,
2013-07-06 23:15:00,70.9,11.7,30.08,South,180,0.0,0.0,1,0.00,,,0.20,WUHU216HW,2013-07-07 03:15:00,
2013-07-06 23:21:00,70.9,11.7,30.07,South,180,0.0,0.0,1,0.00,,,0.20,WUHU216HW,2013-07-07 03:21:00,
2013-07-06 23:26:00,70.7,11.5,30.08,South,180,0.0,0.0,1,0.00,,,0.20,WUHU216HW,2013-07-07 03:26:00,
2013-07-06 23:31:00,70.7,11.5,30.08,South,180,0.0,0.0,1,0.00,,,0.20,WUHU216HW,2013-07-07 03:31:00,
2013-07-06 23:37:00,70.7,11.5,30.09,South,180,0.0,0.0,1,0.00,,,0.20,WUHU216HW,2013-07-07 03:37:00,
2013-07-06 23:42:00,70.7,11.5,30.09,South,180,0.0,0.0,1,0.00,,,0.20,WUHU216HW,2013-07-07 03:42:00,
2013-07-06 23:47:00,70.7,11.5,30.09,South,180,0.0,0.0,1,0.00,,,0.20,WUHU216HW,2013-07-07 03:47:00,
2013-07-06 23:52:00,70.7,11.5,30.09,South,180,0.2,0.2,1,0.00,,,0.20,WUHU216HW,2013-07-07 03:52:00,
2013-07-06 23:57:00,70.6,11.3,30.09,South,180,0.0,0.2,1,0.00,,,0.20,WUHU216HW,2013-07-07 03:57:00,